Time;durP1;ratioP1;P1;durP2;ratioP2;P2;SDS_P1;SDS_P2;PMS_P1;PMS_P2;Temp;Humidity;BMP_temperature;BMP_pressure;BME280_temperature;BME280_humidity;BME280_pressure;Samples;Min_cycle;Max_cycle;Signal;HPM_P1;HPM_P2
2024/01/23 00:01:35;;;;;;;2.57;1.80;;;;;;;0.04;69.95;96478.53;5090864;28;20819;-56
2024/01/23 00:04:04;;;;;;;4.13;2.20;;;;;;;0.32;69.79;96522.16;5090954;28;20440;-56
2024/01/23 00:06:34;;;;;;;1.43;1.33;;;;;;;0.32;68.72;96521.31;5064836;28;20992;-56
2024/01/23 00:09:03;;;;;;;3.37;1.93;;;;;;;0.19;69.38;96515.88;5090849;28;20487;-56
2024/01/23 00:11:32;;;;;;;1.00;1.00;;;;;;;-0.34;68.70;96425.59;5083346;28;20437;-56
2024/01/23 00:14:01;;;;;;;4.23;1.60;;;;;;;0.25;68.80;96504.78;5085444;28;20449;-55
2024/01/23 00:16:29;;;;;;;4.43;3.07;;;;;;;0.25;68.98;96505.59;5091148;28;20436;-56
2024/01/23 00:18:58;;;;;;;2.93;0.93;;;;;;;0.18;68.94;96498.66;5090474;28;20455;-55
2024/01/23 00:21:27;;;;;;;1.10;0.77;;;;;;;0.11;69.01;96492.50;5091458;28;20447;-56
2024/01/23 00:23:57;;;;;;;1.47;1.37;;;;;;;0.14;69.17;96511.22;5090970;28;20497;-56
2024/01/23 00:26:26;;;;;;;4.43;1.03;;;;;;;-0.01;69.21;96485.09;5091347;28;20474;-57
2024/01/23 00:28:54;;;;;;;2.07;1.47;;;;;;;0.23;68.96;96504.94;5090779;28;20468;-56
2024/01/23 00:31:23;;;;;;;2.50;1.43;;;;;;;0.23;68.65;96499.72;5093066;28;20444;-56
2024/01/23 00:33:52;;;;;;;5.90;1.00;;;;;;;0.29;68.03;96506.03;5095290;28;20440;-56
2024/01/23 00:36:20;;;;;;;1.20;0.97;;;;;;;0.13;68.03;96495.75;5095397;28;20440;-56
2024/01/23 00:38:49;;;;;;;0.80;0.80;;;;;;;0.19;68.47;96508.06;5095659;28;20431;-56
2024/01/23 00:41:19;;;;;;;6.63;2.40;;;;;;;0.18;67.94;96507.25;5094376;28;20955;-56
2024/01/23 00:43:48;;;;;;;4.73;1.87;;;;;;;-0.12;68.37;96482.91;5094434;28;20446;-56
2024/01/23 00:46:16;;;;;;;4.27;0.80;;;;;;;-0.01;68.47;96499.94;5095015;28;20436;-56
2024/01/23 00:48:45;;;;;;;1.60;1.33;;;;;;;-0.07;69.45;96506.66;5095494;28;20475;-56
2024/01/23 00:51:15;;;;;;;2.47;1.40;;;;;;;-0.20;70.60;96492.56;5095010;28;20940;-55
2024/01/23 00:53:44;;;;;;;2.27;0.97;;;;;;;-0.10;70.36;96499.16;5094674;28;20541;-57
2024/01/23 00:56:12;;;;;;;4.20;1.80;;;;;;;-0.04;70.09;96498.47;5095040;28;20447;-56
2024/01/23 00:58:42;;;;;;;3.93;0.80;;;;;;;-0.20;69.34;96467.31;5094672;28;20440;-56
2024/01/23 01:01:11;;;;;;;0.40;0.40;;;;;;;-0.05;69.36;96494.25;5094703;28;20523;-55
2024/01/23 01:03:40;;;;;;;1.60;0.83;;;;;;;0.00;68.74;96486.72;5095124;28;20432;-56
2024/01/23 01:06:08;;;;;;;1.40;1.27;;;;;;;0.02;68.55;96483.94;5094422;28;20468;-56
2024/01/23 01:08:37;;;;;;;0.80;0.63;;;;;;;0.07;68.05;96479.03;5094674;28;20875;-57
2024/01/23 01:11:06;;;;;;;1.40;1.40;;;;;;;-0.03;67.82;96473.25;5093858;28;21002;-56
2024/01/23 01:13:35;;;;;;;0.77;0.77;;;;;;;-0.02;67.52;96480.06;5094274;28;20440;-57
2024/01/23 01:16:06;;;;;;;4.37;0.47;;;;;;;-0.10;67.80;96474.91;5094518;28;20436;-55
2024/01/23 01:18:36;;;;;;;1.20;1.10;;;;;;;-0.11;67.84;96473.28;5094945;28;20806;-56
2024/01/23 01:21:05;;;;;;;0.77;0.60;;;;;;;-0.09;67.63;96469.53;5093238;28;20444;-57
2024/01/23 01:23:34;;;;;;;0.70;0.70;;;;;;;-0.10;67.99;96461.88;5094799;28;20436;-57
2024/01/23 01:26:03;;;;;;;1.53;0.70;;;;;;;-0.17;67.83;96455.75;5093682;28;20471;-56
2024/01/23 01:28:31;;;;;;;3.37;0.60;;;;;;;-0.25;68.47;96461.00;5093589;28;20444;-56
2024/01/23 01:31:00;;;;;;;0.30;0.20;;;;;;;-0.16;68.36;96455.59;5093247;28;20433;-56
2024/01/23 01:33:30;;;;;;;1.13;1.13;;;;;;;-0.12;67.85;96453.41;5093606;28;20432;-56
2024/01/23 01:35:59;;;;;;;1.50;0.77;;;;;;;-0.29;68.31;96439.72;5081804;28;20505;-56
2024/01/23 01:38:27;;;;;;;0.40;0.30;;;;;;;-0.30;68.56;96447.69;5094033;28;21043;-56
2024/01/23 01:40:57;;;;;;;1.67;0.60;;;;;;;-0.37;68.65;96450.19;5094162;28;20448;-57
2024/01/23 01:43:27;;;;;;;0.80;0.53;;;;;;;-0.34;69.22;96442.03;5093124;28;20440;-56
2024/01/23 01:46:10;;;;;;;0.60;0.60;;;;;;;-0.37;69.11;96445.00;5093178;28;20973;-56
2024/01/23 01:48:42;;;;;;;2.83;0.57;;;;;;;-0.40;68.80;96440.13;5080460;28;20810;-56
2024/01/23 01:51:12;;;;;;;1.80;1.13;;;;;;;-0.37;69.20;96429.38;5094301;28;20527;-57
2024/01/23 01:53:41;;;;;;;0.50;0.40;;;;;;;-0.31;69.01;96438.28;5067903;28;20472;-56
2024/01/23 01:56:10;;;;;;;1.33;0.93;;;;;;;-0.28;68.74;96428.31;5092990;28;20444;-56
2024/01/23 01:58:40;;;;;;;1.43;0.93;;;;;;;-0.43;68.70;96419.63;5093318;28;20439;-56
2024/01/23 02:01:10;;;;;;;1.83;1.20;;;;;;;-0.33;68.27;96424.63;5092913;28;20814;-56
2024/01/23 02:03:40;;;;;;;3.00;0.83;;;;;;;-0.40;68.74;96428.88;5093664;28;20521;-56
2024/01/23 02:06:09;;;;;;;3.40;0.60;;;;;;;-0.57;69.35;96412.59;5093199;28;20518;-56
2024/01/23 02:08:38;;;;;;;1.90;1.80;;;;;;;-0.50;69.45;96423.91;5093430;28;20523;-56
2024/01/23 02:11:07;;;;;;;0.63;0.53;;;;;;;-0.46;69.23;96416.59;5093305;28;20479;-56
2024/01/23 02:13:36;;;;;;;0.30;0.30;;;;;;;-0.56;69.71;96411.59;5093949;28;20457;-56
2024/01/23 02:16:05;;;;;;;0.37;0.30;;;;;;;-0.45;69.03;96407.78;5093373;28;20454;-56
2024/01/23 02:18:34;;;;;;;1.23;0.83;;;;;;;-0.54;69.05;96407.03;5093488;28;20940;-56
2024/01/23 02:21:04;;;;;;;0.87;0.87;;;;;;;-0.57;68.67;96402.16;5092650;28;20440;-56
2024/01/23 02:23:34;;;;;;;0.70;0.70;;;;;;;-0.96;68.46;96334.59;5092974;28;20432;-56
2024/01/23 02:26:03;;;;;;;3.40;0.73;;;;;;;-0.65;68.54;96403.03;5092892;28;20468;-56
2024/01/23 02:28:31;;;;;;;0.53;0.53;;;;;;;-0.62;68.90;96407.09;5092806;28;20448;-55
2024/01/23 02:31:00;;;;;;;2.23;2.07;;;;;;;-0.69;68.75;96399.16;5067121;28;20987;-56
2024/01/23 02:33:29;;;;;;;0.77;0.60;;;;;;;-0.73;68.89;96403.09;5092731;28;20470;-56
2024/01/23 02:35:58;;;;;;;4.00;0.33;;;;;;;-0.72;69.14;96393.50;5093232;28;20436;-56
2024/01/23 02:38:27;;;;;;;0.73;0.73;;;;;;;-0.72;69.06;96388.28;5092772;28;20857;-56
2024/01/23 02:40:58;;;;;;;0.50;0.50;;;;;;;-0.65;68.77;96389.19;5092685;28;20779;-56
2024/01/23 02:43:27;;;;;;;2.40;0.93;;;;;;;-0.81;69.62;96389.34;5092718;28;21215;-56
2024/01/23 02:45:55;;;;;;;0.37;0.30;;;;;;;-0.73;69.15;96382.25;5092785;28;20817;-56
2024/01/23 02:48:24;;;;;;;0.47;0.47;;;;;;;-0.77;69.47;96383.59;5078985;28;20436;-56
2024/01/23 02:50:53;;;;;;;0.87;0.87;;;;;;;-0.78;69.74;96381.16;5092457;28;20479;-57
2024/01/23 02:53:21;;;;;;;1.13;1.03;;;;;;;-1.43;70.17;96282.72;5092179;28;20544;-56
2024/01/23 02:55:50;;;;;;;1.90;0.47;;;;;;;-0.90;70.31;96369.53;5091733;28;20491;-56
2024/01/23 02:58:21;;;;;;;0.63;0.60;;;;;;;-0.76;70.05;96366.97;5092750;28;20491;-56
2024/01/23 03:00:49;;;;;;;1.80;1.70;;;;;;;-1.02;69.15;96329.28;5091905;28;20436;-55
2024/01/23 03:03:18;;;;;;;1.03;1.03;;;;;;;-0.85;69.08;96356.81;5080396;28;20512;-56
2024/01/23 03:05:47;;;;;;;1.60;0.63;;;;;;;-0.81;68.76;96352.91;5091805;28;20452;-55
2024/01/23 03:08:16;;;;;;;16.57;0.77;;;;;;;-1.13;69.03;96301.88;5092043;28;20479;-56
2024/01/23 03:10:44;;;;;;;0.40;0.40;;;;;;;-0.83;68.88;96350.44;5092015;28;20468;-56
2024/01/23 03:13:13;;;;;;;0.30;0.30;;;;;;;-0.83;68.90;96350.44;5092191;28;20806;-56
2024/01/23 03:15:43;;;;;;;0.97;0.87;;;;;;;-0.88;69.42;96342.34;5091303;28;20952;-56
2024/01/23 03:18:12;;;;;;;8.53;1.00;;;;;;;-0.89;69.10;96345.94;5091992;28;20938;-57
2024/01/23 03:20:41;;;;;;;0.63;0.57;;;;;;;-0.92;69.01;96340.28;5091460;28;20436;-56
2024/01/23 03:23:10;;;;;;;1.07;0.60;;;;;;;-1.00;68.38;96322.09;5092057;28;20830;-57
2024/01/23 03:25:38;;;;;;;0.90;0.90;;;;;;;-1.33;69.32;96292.91;5091468;28;20440;-56
2024/01/23 03:28:07;;;;;;;0.50;0.40;;;;;;;-1.02;69.84;96342.28;5091503;28;20460;-56
2024/01/23 03:30:36;;;;;;;0.70;0.70;;;;;;;-1.23;70.49;96322.09;5091898;28;20541;-57
2024/01/23 03:33:06;;;;;;;0.80;0.63;;;;;;;-1.29;71.02;96326.19;5091800;28;20867;-56
2024/01/23 03:35:35;;;;;;;1.00;0.57;;;;;;;-1.09;71.18;96336.16;5091911;28;20833;-56
2024/01/23 03:38:04;;;;;;;3.70;1.27;;;;;;;-1.05;71.09;96337.44;5092104;28;20434;-57
2024/01/23 03:40:33;;;;;;;1.13;1.13;;;;;;;-0.97;70.95;96333.00;5091914;28;20467;-56
2024/01/23 03:43:02;;;;;;;2.10;2.00;;;;;;;-1.26;71.50;96326.84;5091874;28;20442;-57
2024/01/23 03:45:30;;;;;;;0.80;0.80;;;;;;;-1.17;71.51;96318.81;5065165;28;20509;-56
2024/01/23 03:48:01;;;;;;;0.50;0.50;;;;;;;-1.15;71.33;96334.25;5091930;28;20473;-55
2024/01/23 03:50:31;;;;;;;1.00;1.00;;;;;;;-1.04;70.68;96315.66;5091859;28;20500;-56
2024/01/23 03:53:00;;;;;;;1.33;1.33;;;;;;;-1.19;70.88;96328.59;5091316;28;20464;-55
2024/01/23 03:55:29;;;;;;;0.97;0.97;;;;;;;-1.63;71.47;96278.94;5091773;28;20468;-56
2024/01/23 03:57:58;;;;;;;1.07;0.60;;;;;;;-1.64;71.64;96285.09;5091330;28;20446;-57
2024/01/23 04:00:28;;;;;;;0.87;0.83;;;;;;;-1.69;72.37;96326.38;5092019;28;21009;-57
2024/01/23 04:02:57;;;;;;;2.00;1.00;;;;;;;-1.82;72.85;96289.72;5091219;28;20443;-57
2024/01/23 04:05:26;;;;;;;1.13;0.57;;;;;;;-1.67;73.58;96332.22;5091047;28;20440;-56
2024/01/23 04:07:56;;;;;;;0.50;0.40;;;;;;;-1.56;73.76;96331.84;5091454;28;20432;-56
2024/01/23 04:10:25;;;;;;;0.93;0.60;;;;;;;-1.41;73.22;96327.56;5091218;28;20482;-57
2024/01/23 04:12:54;;;;;;;0.67;0.53;;;;;;;-1.34;72.27;96323.28;5090871;28;20436;-57
2024/01/23 04:15:23;;;;;;;1.13;0.90;;;;;;;-1.38;72.32;96327.22;5091657;28;20462;-57
2024/01/23 04:17:52;;;;;;;1.07;0.83;;;;;;;-1.36;72.37;96325.25;5090978;28;20515;-56
2024/01/23 04:20:20;;;;;;;0.63;0.40;;;;;;;-1.38;72.24;96322.00;5091508;28;20440;-58
2024/01/23 04:22:49;;;;;;;0.40;0.40;;;;;;;-1.44;72.02;96298.47;5085096;28;20437;-56
2024/01/23 04:25:19;;;;;;;0.80;0.40;;;;;;;-1.45;72.55;96315.88;5084685;28;20464;-55
2024/01/23 04:27:48;;;;;;;0.60;0.57;;;;;;;-1.47;73.09;96320.41;5091426;28;20451;-56
2024/01/23 04:30:16;;;;;;;0.67;0.67;;;;;;;-1.44;72.03;96316.66;5090862;28;21023;-56
2024/01/23 04:32:45;;;;;;;0.80;0.80;;;;;;;-1.49;71.83;96301.59;5083227;28;20438;-56
2024/01/23 04:35:14;;;;;;;0.40;0.40;;;;;;;-1.51;71.39;96303.56;5086104;28;20940;-56
2024/01/23 04:37:43;;;;;;;3.90;1.73;;;;;;;-1.57;71.31;96288.63;5091167;28;20527;-57
2024/01/23 04:40:12;;;;;;;1.77;1.20;;;;;;;-1.89;71.13;96239.41;5090648;28;20497;-56
2024/01/23 04:42:42;;;;;;;0.60;0.53;;;;;;;-1.65;70.96;96267.91;5090942;28;20505;-57
2024/01/23 04:45:11;;;;;;;0.73;0.63;;;;;;;-1.50;70.32;96297.38;5090272;28;20435;-57
2024/01/23 04:47:40;;;;;;;0.80;0.80;;;;;;;-1.43;70.46;96315.69;5086184;28;20445;-56
2024/01/23 04:50:10;;;;;;;1.23;1.23;;;;;;;-1.47;69.86;96304.81;5087617;28;20469;-56
2024/01/23 04:52:38;;;;;;;0.80;0.80;;;;;;;-2.06;69.79;96237.88;5089957;28;21053;-57
2024/01/23 04:55:08;;;;;;;1.73;1.00;;;;;;;-1.63;69.96;96314.50;5090977;28;20440;-57
2024/01/23 04:57:37;;;;;;;0.87;0.87;;;;;;;-1.73;70.78;96313.91;5091403;28;20440;-57
2024/01/23 05:00:09;;;;;;;4.80;1.00;;;;;;;-1.66;71.17;96318.25;5090975;28;20471;-57
2024/01/23 05:02:39;;;;;;;1.13;0.90;;;;;;;-1.69;71.43;96313.38;5090077;28;20444;-56
2024/01/23 05:05:08;;;;;;;2.23;1.13;;;;;;;-2.27;70.81;96207.28;5090978;28;20432;-56
2024/01/23 05:07:37;;;;;;;1.57;1.27;;;;;;;-1.52;70.95;96320.13;5090757;28;20483;-56
2024/01/23 05:10:06;;;;;;;1.70;1.60;;;;;;;-1.76;71.46;96296.84;5090494;28;20493;-57
2024/01/23 05:12:35;;;;;;;1.37;1.30;;;;;;;-1.99;70.95;96247.44;5090442;28;20476;-57
2024/01/23 05:15:04;;;;;;;2.20;1.60;;;;;;;-2.01;70.56;96258.97;5091155;28;20476;-57
2024/01/23 05:17:35;;;;;;;0.87;0.87;;;;;;;-1.93;70.93;96303.09;5091005;28;20833;-57
2024/01/23 05:20:04;;;;;;;3.43;2.30;;;;;;;-1.60;71.18;96303.78;5094595;28;20440;-58
2024/01/23 05:22:33;;;;;;;3.17;2.47;;;;;;;-1.59;71.12;96307.97;5093853;28;20511;-58
2024/01/23 05:25:02;;;;;;;2.17;2.00;;;;;;;-1.67;70.50;96293.22;5094259;28;20443;-57
2024/01/23 05:27:31;;;;;;;2.87;2.63;;;;;;;-1.71;70.79;96291.97;5094319;28;20874;-57
2024/01/23 05:30:00;;;;;;;0.67;0.67;;;;;;;-1.60;70.77;96298.56;5093843;28;21005;-57
2024/01/23 05:32:29;;;;;;;2.53;1.63;;;;;;;-1.11;70.16;96304.31;5092674;28;20468;-57
2024/01/23 05:35:03;;;;;;;2.63;1.60;;;;;;;-0.95;69.28;96294.59;5094354;28;20432;-57
2024/01/23 05:37:32;;;;;;;1.03;0.93;;;;;;;-1.07;68.20;96264.78;5068528;28;21045;-57
2024/01/23 05:40:01;;;;;;;1.13;1.07;;;;;;;-0.85;67.98;96300.38;5093677;28;20436;-57
2024/01/23 05:42:29;;;;;;;1.53;1.43;;;;;;;-0.74;68.40;96299.97;5093619;28;20440;-58
2024/01/23 05:44:58;;;;;;;1.67;1.57;;;;;;;-0.60;67.84;96292.34;5093303;28;20527;-57
2024/01/23 05:47:27;;;;;;;1.33;0.83;;;;;;;-0.41;67.27;96290.06;5092887;28;20443;-56
2024/01/23 05:49:55;;;;;;;2.20;1.83;;;;;;;-0.48;66.68;96289.16;5091935;28;20466;-57
2024/01/23 05:52:26;;;;;;;1.80;1.70;;;;;;;-0.87;66.93;96288.53;5090538;28;21030;-57
2024/01/23 05:54:55;;;;;;;2.83;2.43;;;;;;;-1.51;68.10;96238.56;5092447;28;21019;-58
2024/01/23 05:57:23;;;;;;;2.83;2.63;;;;;;;-1.36;69.15;96288.84;5093238;28;20436;-56
2024/01/23 05:59:52;;;;;;;2.87;2.67;;;;;;;-1.15;68.69;96283.03;5092653;28;20498;-55
2024/01/23 06:02:21;;;;;;;8.47;3.87;;;;;;;-1.42;68.88;96255.72;5093173;28;20436;-56
2024/01/23 06:04:49;;;;;;;3.33;3.13;;;;;;;-1.42;69.02;96271.31;5071406;28;20433;-56
2024/01/23 06:07:18;;;;;;;11.63;3.10;;;;;;;-1.47;68.04;96278.81;5072737;28;20440;-56
2024/01/23 06:09:48;;;;;;;1.83;1.30;;;;;;;-1.48;67.16;96276.41;5081343;28;20809;-57
2024/01/23 06:12:17;;;;;;;1.33;1.23;;;;;;;-1.51;66.46;96250.75;5092914;28;20468;-56
2024/01/23 06:14:45;;;;;;;2.03;1.93;;;;;;;-1.41;66.42;96285.13;5092679;28;20440;-56
2024/01/23 06:17:14;;;;;;;0.67;0.57;;;;;;;-1.61;67.26;96281.34;5093124;28;20448;-57
2024/01/23 06:19:43;;;;;;;0.40;0.30;;;;;;;-1.58;67.51;96281.84;5093025;28;21131;-56
2024/01/23 06:22:12;;;;;;;1.93;1.23;;;;;;;-1.68;67.25;96273.44;5092841;28;20486;-57
2024/01/23 06:25:02;;;;;;;0.67;0.67;;;;;;;-1.51;67.31;96271.53;5092603;28;20956;-56
2024/01/23 06:27:31;;;;;;;8.40;1.37;;;;;;;-1.51;67.84;96271.53;5092723;28;20452;-57
2024/01/23 06:30:00;;;;;;;3.07;2.97;;;;;;;-1.56;68.16;96273.84;5092278;28;20447;-56
2024/01/23 06:32:29;;;;;;;1.83;1.77;;;;;;;-1.35;68.12;96266.25;5092406;28;20825;-56
2024/01/23 06:34:58;;;;;;;1.60;1.57;;;;;;;-1.18;67.65;96269.56;5093051;28;20812;-56
2024/01/23 06:37:26;;;;;;;1.23;1.13;;;;;;;-0.69;66.26;96263.00;5092567;28;20440;-56
2024/01/23 06:39:55;;;;;;;3.90;1.40;;;;;;;-0.25;65.68;96226.56;5092226;28;20444;-56
2024/01/23 06:42:27;;;;;;;0.87;0.87;;;;;;;0.26;63.75;96230.03;5092422;28;20476;-56
2024/01/23 06:44:55;;;;;;;5.00;1.50;;;;;;;0.41;61.49;96207.31;5092157;28;20940;-57
2024/01/23 06:47:24;;;;;;;1.60;1.57;;;;;;;0.94;61.20;96242.56;5092439;28;20437;-56
2024/01/23 06:49:53;;;;;;;1.13;1.03;;;;;;;1.34;60.73;96251.59;5092352;28;20436;-57
2024/01/23 06:52:22;;;;;;;2.07;1.97;;;;;;;1.83;62.06;96244.47;5091922;28;20546;-57
2024/01/23 06:54:49;;;;;;;1.90;1.43;;;;;;;1.97;61.34;96204.34;5091661;28;20468;-57
2024/01/23 06:57:18;;;;;;;1.27;1.03;;;;;;;2.72;60.71;96240.03;5092311;28;20441;-55
2024/01/23 06:59:48;;;;;;;1.20;1.10;;;;;;;2.97;60.49;96233.22;5092298;28;20444;-55
2024/01/23 07:02:17;;;;;;;8.40;1.50;;;;;;;3.12;58.48;96226.81;5092247;28;20440;-55
2024/01/23 07:04:45;;;;;;;3.73;2.67;;;;;;;3.52;56.83;96232.03;5091823;28;20482;-57
2024/01/23 07:07:14;;;;;;;14.30;2.90;;;;;;;3.22;56.36;96176.63;5091741;28;20468;-57
2024/01/23 07:09:43;;;;;;;2.23;2.03;;;;;;;3.76;55.75;96203.41;5065442;28;20436;-57
2024/01/23 07:12:11;;;;;;;1.63;1.43;;;;;;;3.76;53.77;96192.91;5091731;28;20468;-58
2024/01/23 07:14:40;;;;;;;3.87;1.60;;;;;;;4.42;52.00;96219.72;5092039;28;20929;-57
2024/01/23 07:17:10;;;;;;;1.53;1.03;;;;;;;4.51;53.30;96217.66;5091402;28;20440;-56
2024/01/23 07:19:39;;;;;;;6.03;1.80;;;;;;;5.04;52.47;96213.72;5091658;28;20865;-56
2024/01/23 07:22:08;;;;;;;4.77;3.30;;;;;;;5.27;51.30;96212.34;5076698;28;20446;-56
2024/01/23 07:24:36;;;;;;;5.80;2.60;;;;;;;5.10;50.54;96202.38;5080934;28;20432;-57
2024/01/23 07:27:05;;;;;;;3.20;3.10;;;;;;;5.28;50.18;96182.41;5091800;28;20440;-56
2024/01/23 07:29:35;;;;;;;1.93;1.83;;;;;;;5.42;49.33;96157.63;5091527;28;20444;-55
2024/01/23 07:32:03;;;;;;;4.93;1.43;;;;;;;5.53;49.05;96212.13;5091334;28;20471;-56
2024/01/23 07:34:33;;;;;;;1.70;1.60;;;;;;;5.52;50.39;96210.50;5091489;28;20994;-57
2024/01/23 07:37:02;;;;;;;3.50;1.93;;;;;;;6.02;47.91;96201.56;5091747;28;20437;-52
2024/01/23 07:39:31;;;;;;;1.37;1.30;;;;;;;6.31;47.92;96195.56;5091658;28;20523;-57
2024/01/23 07:42:00;;;;;;;2.33;2.23;;;;;;;6.43;49.33;96181.63;5090220;28;20528;-57
2024/01/23 07:44:28;;;;;;;7.30;1.73;;;;;;;6.49;46.11;96165.78;5091007;28;20436;-58
2024/01/23 07:46:57;;;;;;;3.33;2.00;;;;;;;6.29;47.42;96186.28;5091349;28;20439;-58
2024/01/23 07:49:26;;;;;;;4.50;3.23;;;;;;;6.87;47.01;96178.63;5091956;28;20444;-58
2024/01/23 07:51:57;;;;;;;1.60;1.50;;;;;;;7.50;45.69;96176.22;5065294;28;20436;-59
2024/01/23 07:54:25;;;;;;;2.67;1.33;;;;;;;7.47;45.03;96156.38;5090791;28;20516;-59
2024/01/23 07:56:54;;;;;;;1.00;1.00;;;;;;;7.79;46.25;96183.22;5091402;28;20493;-59
2024/01/23 07:59:23;;;;;;;1.40;0.90;;;;;;;8.14;44.34;96173.44;5091853;28;20436;-58
2024/01/23 08:01:51;;;;;;;0.97;0.90;;;;;;;8.30;44.26;96174.53;5091456;28;20432;-58
2024/01/23 08:04:20;;;;;;;4.93;1.40;;;;;;;8.78;42.34;96148.53;5090858;28;20858;-56
2024/01/23 08:06:49;;;;;;;2.47;1.70;;;;;;;7.65;44.31;96168.66;5091181;28;20498;-57
2024/01/23 08:09:19;;;;;;;2.80;1.93;;;;;;;7.90;44.14;96169.19;5090473;28;20936;-56
2024/01/23 08:11:48;;;;;;;5.60;1.53;;;;;;;7.29;44.97;96161.75;5091471;28;20829;-56
2024/01/23 08:14:17;;;;;;;1.67;1.57;;;;;;;6.89;45.63;96156.28;5091196;28;20791;-56
2024/01/23 08:16:45;;;;;;;1.20;1.17;;;;;;;7.32;45.39;96166.56;5091291;28;20447;-56
2024/01/23 08:19:14;;;;;;;1.20;1.10;;;;;;;7.80;44.45;96173.44;5091096;28;20510;-56
2024/01/23 08:21:42;;;;;;;0.93;0.93;;;;;;;8.33;43.20;96163.53;5091506;28;20440;-57
2024/01/23 08:24:11;;;;;;;1.10;0.80;;;;;;;9.57;41.66;96159.88;5091372;28;20440;-57
2024/01/23 08:26:41;;;;;;;1.27;1.23;;;;;;;9.20;40.87;96103.22;5091671;28;20903;-57
2024/01/23 08:29:10;;;;;;;0.50;0.50;;;;;;;9.13;40.08;95994.16;5090766;28;20528;-59
2024/01/23 08:31:39;;;;;;;0.60;0.60;;;;;;;10.53;39.25;96145.28;5090734;28;20440;-60
2024/01/23 08:34:07;;;;;;;1.03;0.90;;;;;;;11.83;37.81;96142.19;5088401;28;20508;-60
2024/01/23 08:36:36;;;;;;;2.33;0.87;;;;;;;10.01;39.30;96151.00;5091275;28;20511;-61
2024/01/23 08:39:05;;;;;;;1.57;1.47;;;;;;;9.76;41.64;96147.19;5091230;28;20436;-62
2024/01/23 08:41:34;;;;;;;2.50;1.10;;;;;;;8.23;41.50;96081.41;5090238;28;20436;-63
2024/01/23 08:44:04;;;;;;;2.30;2.10;;;;;;;8.92;41.29;96133.19;5090933;28;20436;-62
2024/01/23 08:46:33;;;;;;;2.33;2.20;;;;;;;9.13;40.68;96118.47;5090505;28;20496;-62
2024/01/23 08:49:01;;;;;;;0.80;0.70;;;;;;;10.00;39.66;96101.72;5090898;28;20440;-64
2024/01/23 08:51:30;;;;;;;2.83;1.03;;;;;;;9.95;38.12;96050.53;5090446;28;20440;-61
2024/01/23 08:53:59;;;;;;;8.20;1.40;;;;;;;9.73;39.63;96114.06;5093051;28;20553;-61
2024/01/23 08:56:28;;;;;;;0.70;0.70;;;;;;;9.88;38.96;96113.47;5094183;28;20443;-61
2024/01/23 08:58:56;;;;;;;1.30;1.03;;;;;;;9.98;40.20;96114.41;5093497;28;20525;-60
2024/01/23 09:01:26;;;;;;;2.30;1.50;;;;;;;10.91;38.57;96107.22;5093652;28;20448;-60
2024/01/23 09:03:56;;;;;;;4.47;0.83;;;;;;;11.39;38.05;96062.75;5094852;28;20436;-59
2024/01/23 09:06:25;;;;;;;1.07;0.97;;;;;;;11.41;37.67;96097.81;5093864;28;21002;-59
2024/01/23 09:08:53;;;;;;;1.73;1.20;;;;;;;11.32;37.52;96075.47;5095198;28;20432;-58
2024/01/23 09:11:22;;;;;;;0.90;0.90;;;;;;;12.22;37.54;96084.22;5094656;28;20432;-60
2024/01/23 09:13:57;;;;;;;1.60;1.03;;;;;;;12.65;36.50;96065.16;5093937;28;20635;-58
2024/01/23 09:16:27;;;;;;;1.57;1.47;;;;;;;12.49;37.45;96082.97;5094125;28;20428;-59
2024/01/23 09:18:55;;;;;;;4.53;1.60;;;;;;;11.31;37.36;96073.03;5093593;28;20971;-58
2024/01/23 09:21:24;;;;;;;1.77;1.53;;;;;;;11.57;37.45;96026.22;5094128;28;20448;-58
2024/01/23 09:23:53;;;;;;;1.50;1.40;;;;;;;12.26;36.46;96061.34;5093711;28;20470;-59
2024/01/23 09:26:22;;;;;;;1.73;1.47;;;;;;;12.81;36.01;96061.47;5094062;28;20444;-58
2024/01/23 09:28:51;;;;;;;0.83;0.83;;;;;;;12.54;35.39;96053.72;5094096;28;20447;-58
2024/01/23 09:31:22;;;;;;;6.90;0.90;;;;;;;12.63;35.82;96004.28;5093686;28;20970;-58
2024/01/23 09:33:52;;;;;;;1.73;1.63;;;;;;;12.81;35.41;96053.50;5093901;28;20486;-58
2024/01/23 09:36:22;;;;;;;0.77;0.77;;;;;;;12.91;35.57;96024.22;5093674;28;20531;-59
2024/01/23 09:38:53;;;;;;;1.20;1.10;;;;;;;13.60;35.16;96052.94;5093650;28;20466;-58
2024/01/23 09:41:23;;;;;;;1.50;1.40;;;;;;;13.45;34.26;95971.22;5093124;28;20441;-57
2024/01/23 09:43:53;;;;;;;5.60;0.67;;;;;;;14.61;33.16;96043.50;5093873;28;20932;-58
2024/01/23 09:46:23;;;;;;;1.50;1.40;;;;;;;13.92;34.54;96046.19;5093674;28;20444;-58
2024/01/23 09:48:54;;;;;;;1.03;0.93;;;;;;;14.67;33.46;96036.25;5067033;28;20493;-57
2024/01/23 09:51:24;;;;;;;1.47;1.37;;;;;;;14.32;32.92;96020.47;5092371;28;20439;-57
2024/01/23 09:53:54;;;;;;;0.90;0.80;;;;;;;14.77;33.42;96017.50;5066961;28;20515;-58
2024/01/23 09:56:23;;;;;;;1.57;1.50;;;;;;;14.81;32.63;96034.53;5093321;28;21013;-57
2024/01/23 09:58:52;;;;;;;4.00;1.33;;;;;;;15.84;31.95;96020.78;5093954;28;20936;-58
2024/01/23 10:01:22;;;;;;;0.60;0.60;;;;;;;16.21;31.29;96020.88;5092999;28;20436;-57
2024/01/23 10:03:55;;;;;;;7.20;1.57;;;;;;;17.52;30.83;96000.16;5093238;28;20436;-57
2024/01/23 10:06:27;;;;;;;1.40;1.30;;;;;;;15.13;31.64;95975.28;5092873;28;20437;-57
2024/01/23 10:08:56;;;;;;;1.13;1.07;;;;;;;15.02;32.52;96009.28;5093236;28;20428;-57
2024/01/23 10:11:24;;;;;;;1.43;1.33;;;;;;;14.78;33.04;96005.72;5093469;28;20944;-57
2024/01/23 10:13:56;;;;;;;3.10;1.63;;;;;;;15.11;34.35;96006.81;5093412;28;20468;-58
2024/01/23 10:16:26;;;;;;;4.90;1.13;;;;;;;15.57;31.38;95988.50;5093191;28;20439;-56
2024/01/23 10:18:55;;;;;;;4.20;1.17;;;;;;;15.15;32.18;95991.81;5093768;28;20436;-57
2024/01/23 10:21:25;;;;;;;5.40;0.97;;;;;;;15.21;31.76;95980.00;5093252;28;20436;-56
2024/01/23 10:23:54;;;;;;;1.70;0.90;;;;;;;15.86;31.71;95949.91;5093244;28;20524;-57
2024/01/23 10:26:24;;;;;;;1.30;1.30;;;;;;;15.38;30.81;95928.84;5092654;28;20447;-57
2024/01/23 10:28:53;;;;;;;2.73;1.77;;;;;;;14.97;30.48;95977.31;5092854;28;20478;-57
2024/01/23 10:31:22;;;;;;;0.90;0.90;;;;;;;15.62;31.06;95970.53;5093173;28;20437;-57
2024/01/23 10:33:50;;;;;;;1.43;1.07;;;;;;;16.43;30.68;95966.81;5092470;28;20991;-57
2024/01/23 10:36:19;;;;;;;0.60;0.60;;;;;;;15.37;30.14;95935.25;5093126;28;20444;-57
2024/01/23 10:38:55;;;;;;;1.80;0.63;;;;;;;16.17;29.53;95950.31;5092175;28;20452;-57
2024/01/23 10:41:26;;;;;;;1.60;0.50;;;;;;;16.29;29.93;95948.00;5092538;28;20881;-57
2024/01/23 10:43:56;;;;;;;1.03;0.97;;;;;;;17.18;30.23;95899.75;5093165;28;20440;-57
2024/01/23 10:46:26;;;;;;;1.17;1.17;;;;;;;17.05;29.77;95912.03;5092787;28;20437;-57
2024/01/23 10:48:54;;;;;;;1.50;0.70;;;;;;;16.43;29.90;95948.06;5092616;28;20451;-57
2024/01/23 10:51:30;;;;;;;1.23;1.23;;;;;;;16.17;30.71;95938.81;5092693;28;20436;-57
2024/01/23 10:54:09;;;;;;;0.50;0.50;;;;;;;15.00;31.04;95949.25;5092110;28;20475;-57
2024/01/23 10:56:43;;;;;;;0.70;0.70;;;;;;;15.34;31.26;95883.19;5092405;28;20497;-58
2024/01/23 10:59:17;;;;;;;0.53;0.50;;;;;;;16.29;29.61;95891.81;5092576;28;20845;-58
2024/01/23 11:01:54;;;;;;;0.57;0.30;;;;;;;16.77;29.11;95927.25;5066832;28;20527;-58
2024/01/23 11:04:23;;;;;;;0.93;0.70;;;;;;;16.11;29.22;95916.72;5092282;28;20440;-57
2024/01/23 11:06:56;;;;;;;0.83;0.83;;;;;;;16.59;29.92;95889.78;5092611;28;20436;-58
2024/01/23 11:09:33;;;;;;;0.60;0.57;;;;;;;17.10;29.86;95885.16;5091989;28;20963;-57
2024/01/23 11:12:12;;;;;;;1.40;0.87;;;;;;;17.14;28.56;95894.19;5092216;28;20468;-58
2024/01/23 11:14:46;;;;;;;0.80;0.80;;;;;;;16.29;29.07;95896.41;5092110;28;20482;-57
2024/01/23 11:17:17;;;;;;;0.50;0.50;;;;;;;16.52;30.21;95898.97;5090944;28;20439;-55
2024/01/23 11:19:47;;;;;;;0.70;0.70;;;;;;;17.36;29.40;95880.09;5091495;28;20545;-55
2024/01/23 11:22:23;;;;;;;0.50;0.40;;;;;;;17.50;27.91;95872.84;5089174;28;20436;-56
2024/01/23 11:24:54;;;;;;;1.37;1.30;;;;;;;17.56;27.84;95869.78;5071702;28;20433;-55
2024/01/23 11:27:27;;;;;;;0.60;0.40;;;;;;;17.42;27.76;95849.44;5071723;28;20437;-55
2024/01/23 11:29:58;;;;;;;0.90;0.90;;;;;;;18.59;27.27;95845.78;5071765;28;20440;-55
2024/01/23 11:32:28;;;;;;;2.50;0.83;;;;;;;18.17;26.82;95847.81;5071819;28;20441;-55
2024/01/23 11:35:02;;;;;;;1.50;1.40;;;;;;;17.72;29.02;95830.06;5064854;28;21000;-55
2024/01/23 11:37:56;;;;;;;1.60;1.30;;;;;;;17.39;27.47;95855.38;5075545;28;20439;-55
2024/01/23 11:40:42;;;;;;;5.43;0.70;;;;;;;19.03;28.65;95851.84;5071463;28;21148;-55
2024/01/23 11:43:24;;;;;;;0.60;0.50;;;;;;;20.68;26.37;95846.44;5065581;28;20516;-55
2024/01/23 11:45:53;;;;;;;0.40;0.30;;;;;;;19.92;26.38;95840.75;5086464;28;20445;-57
2024/01/23 11:48:21;;;;;;;0.60;0.53;;;;;;;20.08;26.09;95825.72;5091928;28;20447;-56